createdAt,value
2023-01-23T00:01:44.651Z,0.40
2023-01-23T00:04:14.752Z,0.40
2023-01-23T00:06:42.993Z,0.40
2023-01-23T00:09:11.413Z,0.40
2023-01-23T00:11:43.520Z,0.50
2023-01-23T00:14:11.788Z,0.40
2023-01-23T00:16:39.902Z,0.40
2023-01-23T00:19:07.790Z,0.40
2023-01-23T00:21:35.939Z,0.30
2023-01-23T00:24:03.997Z,0.30
2023-01-23T00:26:37.376Z,0.30
2023-01-23T00:29:07.461Z,0.30
2023-01-23T00:31:37.645Z,0.30
2023-01-23T00:34:08.122Z,0.40
2023-01-23T00:36:40.559Z,0.40
2023-01-23T00:39:18.583Z,0.30
2023-01-23T00:41:48.669Z,0.30
2023-01-23T00:44:20.528Z,0.30
2023-01-23T00:46:49.114Z,0.30
2023-01-23T00:49:17.785Z,0.40
2023-01-23T00:51:50.266Z,0.40
2023-01-23T00:54:21.702Z,0.40
2023-01-23T00:56:49.934Z,0.30
2023-01-23T00:59:22.493Z,0.30
2023-01-23T01:01:50.986Z,0.30
2023-01-23T01:04:19.148Z,0.30
2023-01-23T01:06:50.000Z,0.30
2023-01-23T01:09:18.268Z,0.20
2023-01-23T01:11:47.980Z,0.20
2023-01-23T01:14:16.741Z,0.20
2023-01-23T01:16:47.003Z,0.30
2023-01-23T01:19:16.160Z,0.30
2023-01-23T01:21:44.058Z,0.20
2023-01-23T01:24:12.171Z,0.20
2023-01-23T01:26:40.773Z,0.20
2023-01-23T01:29:10.308Z,0.10
2023-01-23T01:31:38.461Z,0.00
2023-01-23T01:34:08.024Z,-0.10
2023-01-23T01:36:36.053Z,-0.10
2023-01-23T01:39:04.369Z,-0.20
2023-01-23T01:41:32.514Z,-0.40
2023-01-23T01:44:01.439Z,-0.40
2023-01-23T01:46:30.898Z,-0.40
2023-01-23T01:49:08.558Z,-0.50
2023-01-23T01:51:41.954Z,-0.60
2023-01-23T01:54:19.072Z,-0.60
2023-01-23T01:56:51.221Z,-0.60
2023-01-23T01:59:24.092Z,-0.70
2023-01-23T02:01:58.408Z,-0.80
2023-01-23T02:04:27.906Z,-0.80
2023-01-23T02:06:56.918Z,-0.80
2023-01-23T02:09:27.707Z,-0.80
2023-01-23T02:11:55.718Z,-0.80
2023-01-23T02:14:25.756Z,-0.90
2023-01-23T02:16:59.739Z,-0.90
2023-01-23T02:19:41.586Z,-0.90
2023-01-23T02:22:22.941Z,-0.90
2023-01-23T02:25:00.284Z,-0.80
2023-01-23T02:27:29.817Z,-0.80
2023-01-23T02:29:58.693Z,-0.80
2023-01-23T02:32:27.248Z,-0.80
2023-01-23T02:34:58.867Z,-0.80
2023-01-23T02:37:33.885Z,-0.90
2023-01-23T02:40:03.185Z,-1.00
2023-01-23T02:42:33.371Z,-1.00
2023-01-23T02:45:01.457Z,-0.90
2023-01-23T02:47:29.621Z,-0.90
2023-01-23T02:49:57.698Z,-0.90
2023-01-23T02:52:26.015Z,-0.90
2023-01-23T02:54:54.214Z,-0.90
2023-01-23T02:57:22.385Z,-0.90
2023-01-23T03:00:09.555Z,-0.90
2023-01-23T03:02:38.394Z,-0.80
2023-01-23T03:05:07.271Z,-0.80
2023-01-23T03:07:35.870Z,-0.70
2023-01-23T03:10:04.503Z,-0.60
2023-01-23T03:12:32.603Z,-0.60
2023-01-23T03:15:02.624Z,-0.60
2023-01-23T03:17:32.924Z,-0.50
2023-01-23T03:20:01.589Z,-0.50
2023-01-23T03:22:29.828Z,-0.40
2023-01-23T03:25:01.473Z,-0.40
2023-01-23T03:27:29.749Z,-0.40
2023-01-23T03:30:16.103Z,-0.30
2023-01-23T03:32:47.433Z,-0.30
2023-01-23T03:35:20.419Z,-0.20
2023-01-23T03:37:49.773Z,-0.20
2023-01-23T03:40:36.395Z,-0.20
2023-01-23T03:43:07.577Z,-0.20
2023-01-23T03:45:38.672Z,-0.10
2023-01-23T03:48:08.357Z,-0.10
2023-01-23T03:50:39.319Z,0.00
2023-01-23T03:53:07.285Z,0.00
2023-01-23T03:55:35.325Z,0.10
2023-01-23T03:58:05.474Z,0.00
2023-01-23T04:00:33.483Z,0.00
2023-01-23T04:03:01.624Z,0.00
2023-01-23T04:05:31.130Z,0.10
2023-01-23T04:07:59.167Z,0.10
2023-01-23T04:10:27.371Z,0.10
2023-01-23T04:12:55.462Z,0.10
2023-01-23T04:15:24.966Z,0.10
2023-01-23T04:17:53.300Z,0.20
2023-01-23T04:20:21.695Z,0.20
2023-01-23T04:22:51.370Z,0.30
2023-01-23T04:25:19.306Z,0.20
2023-01-23T04:27:47.435Z,0.30
2023-01-23T04:30:16.233Z,0.40
2023-01-23T04:32:44.284Z,0.30
2023-01-23T04:35:12.602Z,0.30
2023-01-23T04:37:40.599Z,0.30
2023-01-23T04:40:12.256Z,0.30
2023-01-23T04:42:41.241Z,0.20
2023-01-23T04:45:11.132Z,0.30
2023-01-23T04:47:41.680Z,0.30
2023-01-23T04:50:10.769Z,0.30
2023-01-23T04:52:38.950Z,0.20
2023-01-23T04:55:09.771Z,0.30
2023-01-23T04:57:37.770Z,0.20
2023-01-23T05:00:06.674Z,0.20
2023-01-23T05:02:34.735Z,0.40
2023-01-23T05:05:02.715Z,0.40
2023-01-23T05:07:31.014Z,0.30
2023-01-23T05:09:59.086Z,0.30
2023-01-23T05:12:28.323Z,0.30
2023-01-23T05:14:56.324Z,0.30
2023-01-23T05:17:24.304Z,0.40
2023-01-23T05:19:52.626Z,0.40
2023-01-23T05:22:23.803Z,0.40
2023-01-23T05:24:54.179Z,0.40
2023-01-23T05:27:22.241Z,0.40
2023-01-23T05:29:51.824Z,0.40
2023-01-23T05:32:21.535Z,0.40
2023-01-23T05:34:50.665Z,0.50
2023-01-23T05:37:22.028Z,0.50
2023-01-23T05:39:50.274Z,0.50
2023-01-23T05:42:18.177Z,0.40
2023-01-23T05:44:46.283Z,0.40
2023-01-23T05:47:18.241Z,0.30
2023-01-23T05:49:49.911Z,0.30
2023-01-23T05:52:21.816Z,0.50
2023-01-23T05:54:50.369Z,0.50
2023-01-23T05:57:18.964Z,0.50
2023-01-23T05:59:47.133Z,0.50
2023-01-23T06:02:18.450Z,0.40
2023-01-23T06:04:48.617Z,0.40
2023-01-23T06:07:18.241Z,0.40
2023-01-23T06:09:46.675Z,0.50
2023-01-23T06:12:17.213Z,0.50
2023-01-23T06:14:45.449Z,0.50
2023-01-23T06:17:14.106Z,0.60
2023-01-23T06:19:43.389Z,0.50
2023-01-23T06:22:11.574Z,0.50
2023-01-23T06:24:39.952Z,0.50
2023-01-23T06:27:10.874Z,0.50
2023-01-23T06:29:39.804Z,0.60
2023-01-23T06:32:08.138Z,0.70
2023-01-23T06:34:36.754Z,0.70
2023-01-23T06:37:06.226Z,0.70
2023-01-23T06:39:37.131Z,0.70
2023-01-23T06:42:12.785Z,0.70
2023-01-23T06:44:42.980Z,0.70
2023-01-23T06:47:10.914Z,0.70
2023-01-23T06:49:38.910Z,0.70
2023-01-23T06:52:11.101Z,0.80
2023-01-23T06:54:39.154Z,0.80
2023-01-23T06:57:07.157Z,0.90
2023-01-23T06:59:35.323Z,0.90
2023-01-23T07:02:06.287Z,0.90
2023-01-23T07:04:34.448Z,0.90
2023-01-23T07:07:02.454Z,0.90
2023-01-23T07:09:32.162Z,1.00
2023-01-23T07:12:00.111Z,0.80
2023-01-23T07:14:28.688Z,0.80
2023-01-23T07:16:58.834Z,0.90
2023-01-23T07:19:27.076Z,0.80
2023-01-23T07:21:56.422Z,0.90
2023-01-23T07:24:24.692Z,0.90
2023-01-23T07:26:54.329Z,1.00
2023-01-23T07:29:22.192Z,1.10
2023-01-23T07:31:53.439Z,1.00
2023-01-23T07:34:21.799Z,1.00
2023-01-23T07:36:50.047Z,1.00
2023-01-23T07:39:19.798Z,1.00
2023-01-23T07:41:48.116Z,1.10
2023-01-23T07:44:22.423Z,1.10
2023-01-23T07:46:53.472Z,1.10
2023-01-23T07:49:21.892Z,1.10
2023-01-23T07:51:50.465Z,1.20
2023-01-23T07:54:18.840Z,1.20
2023-01-23T07:56:49.690Z,1.20
2023-01-23T07:59:19.223Z,1.30
2023-01-23T08:01:48.920Z,1.20
2023-01-23T08:04:17.241Z,1.30
2023-01-23T08:06:47.096Z,1.30
2023-01-23T08:09:15.660Z,1.20
2023-01-23T08:11:45.863Z,1.30
2023-01-23T08:14:14.027Z,1.40
2023-01-23T08:16:45.743Z,1.40
2023-01-23T08:19:13.964Z,1.20
2023-01-23T08:21:42.245Z,1.20
2023-01-23T08:24:12.285Z,1.20
2023-01-23T08:26:41.411Z,1.30
2023-01-23T08:29:09.771Z,1.50
2023-01-23T08:31:39.945Z,1.60
2023-01-23T08:34:09.473Z,1.60
2023-01-23T08:36:37.483Z,1.70
2023-01-23T08:39:05.904Z,1.80
2023-01-23T08:41:35.770Z,1.70
2023-01-23T08:44:04.199Z,1.60
2023-01-23T08:46:32.348Z,1.60
2023-01-23T08:49:00.557Z,1.70
2023-01-23T08:51:30.273Z,1.80
2023-01-23T08:53:58.530Z,1.80
2023-01-23T08:56:27.508Z,1.80
2023-01-23T08:58:55.814Z,1.90
2023-01-23T09:01:30.127Z,1.90
2023-01-23T09:03:58.364Z,1.90
2023-01-23T09:06:26.737Z,1.90
2023-01-23T09:08:56.421Z,1.90
2023-01-23T09:11:25.901Z,1.90
2023-01-23T09:13:54.288Z,1.80
2023-01-23T09:16:22.713Z,1.90
2023-01-23T09:18:50.681Z,1.90
2023-01-23T09:21:21.157Z,1.80
2023-01-23T09:23:51.645Z,1.70
2023-01-23T09:26:21.284Z,1.70
2023-01-23T09:28:51.313Z,1.70
2023-01-23T09:31:19.983Z,1.70
2023-01-23T09:33:50.056Z,1.70
2023-01-23T09:36:33.702Z,1.70
2023-01-23T09:39:09.458Z,1.70
2023-01-23T09:41:41.660Z,1.70
2023-01-23T09:44:16.951Z,1.80
2023-01-23T09:46:53.039Z,1.80
2023-01-23T09:49:26.634Z,1.80
2023-01-23T09:51:59.299Z,2.00
2023-01-23T09:54:37.234Z,2.10
2023-01-23T09:57:15.221Z,2.30
2023-01-23T09:59:59.701Z,2.40
2023-01-23T10:02:34.775Z,2.50
2023-01-23T10:05:05.259Z,2.30
2023-01-23T10:07:49.703Z,2.20
2023-01-23T10:10:52.287Z,2.10
2023-01-23T10:13:31.346Z,2.30
2023-01-23T10:16:17.148Z,2.30
2023-01-23T10:18:55.495Z,2.30
2023-01-23T10:21:30.557Z,2.40
2023-01-23T10:24:11.451Z,2.30
2023-01-23T10:26:43.469Z,2.30
2023-01-23T10:29:27.412Z,2.50
2023-01-23T10:32:01.729Z,2.50
2023-01-23T10:34:39.118Z,2.60
2023-01-23T10:37:18.047Z,2.60
2023-01-23T10:39:50.764Z,2.50
2023-01-23T10:42:23.699Z,2.70
2023-01-23T10:44:53.042Z,2.50
2023-01-23T10:47:25.575Z,2.40
2023-01-23T10:49:54.829Z,2.40
2023-01-23T10:52:35.586Z,2.60
2023-01-23T10:55:04.626Z,2.60
2023-01-23T10:57:44.902Z,2.40
2023-01-23T11:00:25.732Z,2.30
2023-01-23T11:02:53.825Z,2.30
2023-01-23T11:05:51.987Z,2.30
2023-01-23T11:08:28.817Z,2.20
2023-01-23T11:11:19.768Z,2.40
2023-01-23T11:13:49.522Z,2.70
2023-01-23T11:16:24.162Z,3.00
2023-01-23T11:19:03.995Z,3.20
2023-01-23T11:21:35.945Z,3.30
2023-01-23T11:24:27.543Z,3.50
2023-01-23T11:27:04.377Z,3.70
2023-01-23T11:29:51.741Z,3.70
2023-01-23T11:32:25.964Z,3.80
2023-01-23T11:35:08.626Z,3.90
2023-01-23T11:37:42.408Z,3.90
2023-01-23T11:40:15.035Z,4.00
2023-01-23T11:42:44.351Z,4.10
2023-01-23T11:45:25.929Z,4.10
2023-01-23T11:48:19.986Z,4.20
2023-01-23T11:50:55.589Z,4.30
2023-01-23T11:53:42.314Z,4.40
2023-01-23T11:56:41.433Z,4.30
2023-01-23T11:59:41.325Z,4.40
2023-01-23T12:02:40.039Z,4.40
2023-01-23T12:05:41.654Z,4.60
2023-01-23T12:08:25.614Z,4.70
2023-01-23T12:11:03.141Z,4.40
2023-01-23T12:14:09.088Z,4.30
2023-01-23T12:16:57.335Z,4.40
2023-01-23T12:19:38.334Z,4.40
2023-01-23T12:22:19.857Z,4.40
2023-01-23T12:25:07.111Z,4.50
2023-01-23T12:27:44.852Z,4.50
2023-01-23T12:30:41.939Z,4.50
2023-01-23T12:33:33.783Z,4.60
2023-01-23T12:36:59.479Z,4.60
2023-01-23T12:39:49.180Z,4.40
2023-01-23T12:42:22.781Z,4.40
2023-01-23T12:44:58.605Z,4.40
2023-01-23T12:47:31.809Z,4.40
2023-01-23T12:50:08.065Z,4.60
2023-01-23T12:52:42.384Z,4.40
2023-01-23T12:55:20.002Z,4.40
2023-01-23T12:57:59.703Z,4.50
2023-01-23T13:01:09.491Z,4.60
2023-01-23T13:03:54.968Z,4.60
2023-01-23T13:06:36.837Z,4.50
2023-01-23T13:09:18.933Z,4.40
2023-01-23T13:11:57.561Z,4.40
2023-01-23T13:15:10.206Z,4.50
2023-01-23T13:17:42.738Z,4.60
2023-01-23T13:20:40.389Z,4.40
2023-01-23T13:23:27.300Z,4.50
2023-01-23T13:26:35.957Z,4.40
2023-01-23T13:29:16.776Z,4.40
2023-01-23T13:31:47.121Z,4.50
2023-01-23T13:34:39.603Z,4.50
2023-01-23T13:37:52.926Z,4.50
2023-01-23T13:40:30.146Z,4.50
2023-01-23T13:42:58.262Z,4.40
2023-01-23T13:45:32.315Z,4.40
2023-01-23T14:23:07.103Z,4.50
2023-01-23T14:25:43.180Z,4.40
2023-01-23T14:28:17.716Z,4.40
2023-01-23T14:30:55.441Z,4.40
2023-01-23T14:33:23.597Z,4.30
2023-01-23T14:35:55.358Z,4.40
2023-01-23T14:38:31.752Z,4.40
2023-01-23T14:41:00.389Z,4.40
2023-01-23T14:43:30.750Z,4.30
2023-01-23T14:46:06.446Z,4.30
2023-01-23T14:48:38.933Z,4.30
2023-01-23T14:51:11.417Z,4.20
2023-01-23T14:53:51.494Z,4.10
2023-01-23T14:56:19.768Z,4.10
2023-01-23T14:58:48.317Z,4.00
2023-01-23T15:01:19.656Z,4.00
2023-01-23T15:03:57.974Z,3.90
2023-01-23T15:06:37.339Z,3.90
2023-01-23T15:09:17.940Z,3.90
2023-01-23T15:11:46.928Z,3.80
2023-01-23T15:14:28.910Z,3.70
2023-01-23T15:17:04.629Z,3.70
2023-01-23T15:19:33.344Z,3.70
2023-01-23T15:22:20.264Z,3.60
2023-01-23T15:24:49.025Z,3.50
2023-01-23T15:27:30.878Z,3.50
2023-01-23T15:30:48.375Z,3.50
2023-01-23T15:33:29.989Z,3.40
2023-01-23T15:36:06.801Z,3.40
2023-01-23T15:38:37.141Z,3.30
2023-01-23T15:41:10.818Z,3.30
2023-01-23T15:43:43.696Z,3.30
2023-01-23T15:46:12.087Z,3.20
2023-01-23T15:48:40.677Z,3.10
2023-01-23T15:51:10.583Z,3.10
2023-01-23T15:53:44.500Z,3.00
2023-01-23T15:56:26.321Z,2.90
2023-01-23T15:58:54.497Z,2.90
2023-01-23T16:01:23.191Z,2.80
2023-01-23T16:03:51.274Z,2.80
2023-01-23T16:06:21.956Z,2.70
2023-01-23T16:09:01.003Z,2.60
2023-01-23T16:11:37.367Z,2.40
2023-01-23T16:14:12.237Z,2.40
2023-01-23T16:16:40.698Z,2.40
2023-01-23T16:19:08.792Z,2.40
2023-01-23T16:21:44.157Z,2.40
2023-01-23T16:24:25.879Z,2.30
2023-01-23T16:26:57.712Z,2.30
2023-01-23T16:29:28.504Z,2.30
2023-01-23T16:31:59.192Z,2.20
2023-01-23T16:34:29.333Z,2.10
2023-01-23T16:37:00.741Z,2.00
2023-01-23T16:39:33.311Z,2.00
2023-01-23T16:42:02.145Z,2.00
2023-01-23T16:44:30.553Z,2.00
2023-01-23T16:47:01.591Z,2.00
2023-01-23T16:49:29.666Z,2.00
2023-01-23T16:52:01.369Z,1.90
2023-01-23T16:54:31.379Z,1.90
2023-01-23T16:56:59.904Z,1.80
2023-01-23T16:59:36.943Z,1.80
2023-01-23T17:02:12.428Z,1.70
2023-01-23T17:04:40.911Z,1.80
2023-01-23T17:07:15.808Z,1.70
2023-01-23T17:09:49.446Z,1.70
2023-01-23T17:12:21.999Z,1.70
2023-01-23T17:14:52.805Z,1.60
2023-01-23T17:17:28.141Z,1.70
2023-01-23T17:19:57.665Z,1.60
2023-01-23T17:22:30.293Z,1.50
2023-01-23T17:25:00.120Z,1.50
2023-01-23T17:27:28.220Z,1.50
2023-01-23T17:30:01.902Z,1.60
2023-01-23T17:32:35.357Z,1.60
2023-01-23T17:35:05.760Z,1.60
2023-01-23T17:37:35.412Z,1.60
2023-01-23T17:40:05.392Z,1.70
2023-01-23T17:42:33.798Z,1.70
2023-01-23T17:45:04.903Z,1.80
2023-01-23T17:47:35.211Z,1.80
2023-01-23T17:50:03.701Z,1.80
2023-01-23T17:52:31.703Z,1.80
2023-01-23T17:54:59.998Z,1.80
2023-01-23T17:57:32.117Z,1.80
2023-01-23T18:00:02.319Z,1.80
2023-01-23T18:02:30.790Z,1.70
2023-01-23T18:04:59.759Z,1.80
2023-01-23T18:07:27.970Z,1.80
2023-01-23T18:09:56.297Z,1.80
2023-01-23T18:12:44.246Z,1.80
2023-01-23T18:15:19.775Z,1.70
2023-01-23T18:17:56.663Z,1.70
2023-01-23T18:20:26.060Z,1.70
2023-01-23T18:22:55.352Z,1.60
2023-01-23T18:25:28.393Z,1.70
2023-01-23T18:28:02.268Z,1.70
2023-01-23T18:30:44.971Z,1.70
2023-01-23T18:33:31.243Z,1.60
2023-01-23T18:36:16.908Z,1.60
2023-01-23T18:39:02.609Z,1.60
2023-01-23T18:41:31.110Z,1.50
2023-01-23T18:44:07.968Z,1.50
2023-01-23T18:46:36.619Z,1.60
2023-01-23T18:49:08.251Z,1.60
2023-01-23T18:51:47.738Z,1.50
2023-01-23T18:54:38.416Z,1.60
2023-01-23T18:57:25.915Z,1.50
2023-01-23T19:00:12.717Z,1.50
2023-01-23T19:02:49.189Z,1.50
2023-01-23T19:05:25.188Z,1.60
2023-01-23T19:07:53.949Z,1.50
2023-01-23T19:10:24.800Z,1.50
2023-01-23T19:13:14.693Z,1.50
2023-01-23T19:15:55.247Z,1.50
2023-01-23T19:18:48.717Z,1.40
2023-01-23T19:21:23.717Z,1.40
2023-01-23T19:23:58.515Z,1.40
2023-01-23T19:26:29.620Z,1.40
2023-01-23T19:29:01.549Z,1.40
2023-01-23T19:31:33.765Z,1.30
2023-01-23T19:34:02.741Z,1.40
2023-01-23T19:36:34.128Z,1.30
2023-01-23T19:39:04.637Z,1.30
2023-01-23T19:41:41.565Z,1.30
2023-01-23T19:44:13.205Z,1.20
2023-01-23T19:46:43.266Z,1.20
2023-01-23T19:49:12.104Z,1.20
2023-01-23T19:51:41.476Z,1.20
2023-01-23T19:54:12.763Z,1.20
2023-01-23T19:56:42.453Z,1.20
2023-01-23T19:59:11.912Z,1.20
2023-01-23T20:01:48.727Z,1.20
2023-01-23T20:04:20.569Z,1.20
2023-01-23T20:06:52.286Z,1.20
2023-01-23T20:09:20.708Z,1.10
2023-01-23T20:11:49.160Z,1.10
2023-01-23T20:14:17.800Z,1.10
2023-01-23T20:16:47.824Z,1.10
2023-01-23T20:19:19.621Z,1.10
2023-01-23T20:21:48.628Z,1.10
2023-01-23T20:24:17.574Z,1.10
2023-01-23T20:26:49.937Z,1.10
2023-01-23T20:29:23.880Z,1.10
2023-01-23T20:31:55.279Z,1.10
2023-01-23T20:34:23.428Z,1.10
2023-01-23T20:36:51.762Z,1.10
2023-01-23T20:39:19.868Z,1.10
2023-01-23T20:41:48.260Z,1.20
2023-01-23T20:44:16.393Z,1.20
2023-01-23T20:46:45.600Z,1.10
2023-01-23T20:49:15.677Z,1.10
2023-01-23T20:51:44.283Z,1.10
2023-01-23T20:54:11.933Z,1.10
2023-01-23T20:56:40.118Z,1.20
2023-01-23T20:59:23.308Z,1.20
2023-01-23T21:02:09.500Z,1.10
2023-01-23T21:04:40.441Z,1.20
2023-01-23T21:07:10.896Z,1.10
2023-01-23T21:09:38.997Z,1.00
2023-01-23T21:12:07.513Z,1.00
2023-01-23T21:14:36.268Z,1.00
2023-01-23T21:17:05.531Z,0.90
2023-01-23T21:19:34.108Z,0.90
2023-01-23T21:22:06.038Z,1.00
2023-01-23T21:24:37.165Z,1.00
2023-01-23T21:27:07.173Z,0.90
2023-01-23T21:29:35.705Z,0.80
2023-01-23T21:32:03.662Z,0.80
2023-01-23T21:34:34.631Z,0.80
2023-01-23T21:37:07.308Z,0.70
2023-01-23T21:39:36.724Z,0.50
2023-01-23T21:42:05.020Z,0.40
2023-01-23T21:44:35.725Z,0.40
2023-01-23T21:47:04.175Z,0.40
2023-01-23T21:49:32.249Z,0.30
2023-01-23T21:52:00.838Z,0.20
2023-01-23T21:54:32.774Z,0.10
2023-01-23T21:57:00.803Z,0.10
2023-01-23T21:59:36.081Z,0.10
2023-01-23T22:02:03.353Z,0.00
2023-01-23T22:04:31.645Z,0.00
2023-01-23T22:06:59.715Z,-0.20
2023-01-23T22:09:27.815Z,-0.20
2023-01-23T22:11:57.834Z,-0.10
2023-01-23T22:14:26.245Z,-0.20
2023-01-23T22:16:56.938Z,-0.20
2023-01-23T22:19:26.003Z,-0.20
2023-01-23T22:21:54.704Z,-0.30
2023-01-23T22:24:22.858Z,-0.30
2023-01-23T22:26:51.437Z,-0.40
2023-01-23T22:29:23.037Z,-0.50
2023-01-23T22:31:52.221Z,-0.60
2023-01-23T22:34:20.358Z,-0.60
2023-01-23T22:36:48.345Z,-0.60
2023-01-23T22:39:17.092Z,-0.70
2023-01-23T22:41:45.773Z,-0.70
2023-01-23T22:44:14.518Z,-0.70
2023-01-23T22:46:44.360Z,-0.60
2023-01-23T22:49:12.516Z,-0.50
2023-01-23T22:51:41.601Z,-0.50
2023-01-23T22:54:11.360Z,-0.30
2023-01-23T22:56:39.577Z,-0.20
2023-01-23T22:59:07.653Z,-0.10
2023-01-23T23:01:36.612Z,-0.10
2023-01-23T23:04:06.272Z,-0.10
2023-01-23T23:06:34.451Z,-0.20
2023-01-23T23:09:02.482Z,-0.50
2023-01-23T23:11:30.718Z,-0.50
2023-01-23T23:13:59.459Z,-0.40
2023-01-23T23:16:31.010Z,-0.50
2023-01-23T23:19:03.612Z,-0.50
2023-01-23T23:21:36.128Z,-0.50
2023-01-23T23:24:08.608Z,-0.60
2023-01-23T23:26:36.935Z,-0.60
2023-01-23T23:29:06.029Z,-0.50
2023-01-23T23:31:34.604Z,-0.50
2023-01-23T23:34:05.452Z,-0.60
2023-01-23T23:36:38.246Z,-0.60
2023-01-23T23:39:06.422Z,-0.70
2023-01-23T23:41:34.637Z,-0.70
2023-01-23T23:44:02.857Z,-0.90
2023-01-23T23:46:30.975Z,-0.80
2023-01-23T23:48:59.613Z,-0.70
2023-01-23T23:51:27.730Z,-0.80
2023-01-23T23:53:57.262Z,-0.80
2023-01-23T23:56:27.937Z,-0.80
2023-01-23T23:58:56.788Z,-0.90
